KMYL

Mc Call Municipal Airport

Mc Call, Idaho, USA
METAR KMYL 280051Z AUTO 33010G18KT 10SM CLR 21/08 A3001 RMK AO2 SLP129 T02060083
Observed Flight Rules
May-28 @ 00:51 UTC (33 minutes ago) Visual Flight Rules
Wind Visibility Clouds
330° at 10 knots
 Gusting to 18 knots
10 miles
  • Clear skies
Temperatures Readings
Current 21°C / 70°F
Dewpoint 8°C / 46°F
Humidity 43%
Altimeter 30.01" Hg
Pressure 1012.9 hPa
Elevation 1533
METAR KMYL 280051Z AUTO 33010G18KT 10SM CLR 21/08 A3001 RMK AO2 SLP129 T02060083
Observed Flight Rules
May-28 @ 00:51 UTC
(33 minutes ago)
VFR
Wind Visibility
330° at 10 knots
 Gusting to 18 knots
10 miles
Clouds
  • Clear skies
Temperature Dewpoint
21°C / 70°F 8°C / 46°F
Humidity Altimeter Pressure
43% 30.01" Hg 1012.9 hPa